Terminal Aerodrome Forecast
Issued by NWS Greer, SC

Home | Current Version | Previous Version | Text Only | Print | Product List | Glossary On
Versions: 1 2 3 4 5 6 7 8 9 10 11 12 13 14 15 16 17 18 19 20 21 22 23 24
000
FTUS42 KGSP 200536
TAFGSP
TAF
KGSP 200536Z 2006/2106 03003KT P6SM FEW250
      TEMPO 2010/2012 3SM BR FEW004
     FM201600 04003KT P6SM FEW250
     FM201700 07003KT P6SM FEW250
     FM202000 10004KT P6SM FEW250
     FM202300 07003KT P6SM FEW200=

USA.gov is the U.S. government's official web portal to all federal, state and local government web resources and services.